CheckWX is a tool to help pilots better visualize weather data.  It is not intended as a substitute for an official pre-flight weather briefing.

03:13:27 UTC

KPWM METAR
Portland International Jetport Airport
Portland, Maine, USA
Current

22 mins ago

KPWM 260251Z 18009KT 10SM FEW039 BKN080 OVC110 13/08 A3000 RMK AO2 RAB12E43 SLP157 P0000 60000 T01280083 58018
Observed
May-26 @ 02:51 UTC
Wind
  • 180° at 9 KTS
Visibility
10 SM
Flight Rules
VFR
Cloud Levels
  • Few at 3,900' AGL
  • Broken at 8,000' AGL
  • Overcast at 11,000' AGL
Temperature
13°C / 55°F
Dewpoint
C / 46°F
Humidity
72%
Altimeter
30" Hg
Pressure
1015.92 hPa
Current Rain
0.01"
Previous

1 hour ago

KPWM 260151Z 18009G17KT 10SM FEW050 BKN080 OVC110 14/07 A3002 RMK AO2 SLP166 T01390067
Observed
May-26 @ 01:51 UTC
Wind
  • 180° at 9 KTS
  • Gusting to 17 KTS
Visibility
10 SM
Flight Rules
VFR
Cloud Levels
  • Few at 5,000' AGL
  • Broken at 8,000' AGL
  • Overcast at 11,000' AGL
Temperature
14°C / 57°F
Dewpoint
C / 45°F
Humidity
63%
Altimeter
30.02" Hg
Pressure
1016.62 hPa
Previous

2 hours ago

KPWM 260051Z 18008KT 10SM BKN085 OVC110 14/07 A3005 RMK AO2 RAB16E33 SLP177 P0000 T01390072
Observed
May-26 @ 00:51 UTC
Wind
  • 180° at 8 KTS
Visibility
10 SM
Flight Rules
VFR
Cloud Levels
  • Broken at 8,500' AGL
  • Overcast at 11,000' AGL
Temperature
14°C / 57°F
Dewpoint
C / 45°F
Humidity
63%
Altimeter
30.05" Hg
Pressure
1017.62 hPa
Current Rain
0.01"